KLWC

Lawrence Municipal Airport

Lawrence, Kansas, USA
METAR KLWC 191052Z AUTO 11005KT 10SM CLR 20/19 A2990 RMK AO2 SLP116 T02000194
Observed Flight Rules
Sep-19 @ 10:52 UTC (26 minutes ago) Visual Flight Rules
Wind Visibility Clouds
110° at 5 knots 10 miles
  • Clear skies
Temperatures Readings
Current 20°C / 68°F
Dewpoint 19°C / 66°F
Humidity 94%
Altimeter 29.9" Hg
Pressure 1011.6 hPa
Elevation 253
METAR KLWC 191052Z AUTO 11005KT 10SM CLR 20/19 A2990 RMK AO2 SLP116 T02000194
Observed Flight Rules
Sep-19 @ 10:52 UTC
(26 minutes ago)
VFR
Wind Visibility
110° at 5 knots 10 miles
Clouds
  • Clear skies
Temperature Dewpoint
20°C / 68°F 19°C / 66°F
Humidity Altimeter Pressure
94% 29.9" Hg 1011.6 hPa